Terminal Aerodrome Forecast
Issued by NWS

Home | Current Version | Previous Version | Text Only | Print | Product List | Glossary On
Versions: 1 2 3 4 5 6 7 8 9 10 11 12 13 14 15 16 17 18 19 20
000
FTUS44 KTSA 011700
TAFMLC
TAF
KMLC 011740Z 0118/0218 36006KT 4SM BR OVC005
     FM012000 01006KT 6SM BR OVC008
     FM020000 01007KT P6SM OVC012
     FM020700 02006KT 4SM BR OVC007
     FM021500 06007KT 4SM BR OVC004=

USA.gov is the U.S. government's official web portal to all federal, state and local government web resources and services.